Time;durP1;ratioP1;P1;durP2;ratioP2;P2;SDS_P1;SDS_P2;PMS_P1;PMS_P2;Temp;Humidity;BMP_temperature;BMP_pressure;BME280_temperature;BME280_humidity;BME280_pressure;Samples;Min_cycle;Max_cycle;Signal;HPM_P1;HPM_P2
2023/07/15 00:00:34;;;;;;;7.18;2.40;;;21.70;79.90;;;;;;4999962;28;20033;-77
2023/07/15 00:03:21;;;;;;;4.22;2.10;;;21.70;79.80;;;;;;5004009;28;20381;-76
2023/07/15 00:06:08;;;;;;;6.18;2.38;;;21.70;79.70;;;;;;4998999;28;20049;-76
2023/07/15 00:08:55;;;;;;;4.07;2.13;;;21.70;79.80;;;;;;5005262;28;20099;-76
2023/07/15 00:11:45;;;;;;;8.55;2.72;;;21.70;79.50;;;;;;4999884;28;20989;-76
2023/07/15 00:14:31;;;;;;;6.57;2.25;;;21.70;79.30;;;;;;5004405;28;20046;-76
2023/07/15 00:17:17;;;;;;;9.15;2.50;;;21.70;79.60;;;;;;5018983;28;20052;-76
2023/07/15 00:20:07;;;;;;;5.20;2.17;;;21.70;79.90;;;;;;5004775;28;20084;-76
2023/07/15 00:22:54;;;;;;;5.20;2.10;;;21.70;79.70;;;;;;4999800;28;20466;-76
2023/07/15 00:25:40;;;;;;;4.70;2.50;;;21.60;79.80;;;;;;5008695;28;20053;-77
2023/07/15 00:28:26;;;;;;;4.82;2.17;;;21.60;79.80;;;;;;5024875;28;20124;-77
2023/07/15 00:31:13;;;;;;;10.38;2.53;;;21.70;80.20;;;;;;4986139;28;20157;-76
2023/07/15 00:34:00;;;;;;;6.00;2.45;;;21.70;80.30;;;;;;4998008;28;20419;-77
2023/07/15 00:36:46;;;;;;;4.95;2.40;;;21.70;80.20;;;;;;5017318;28;20037;-77
2023/07/15 00:39:32;;;;;;;4.95;2.45;;;21.60;80.30;;;;;;4997738;28;20112;-76
2023/07/15 00:42:40;;;;;;;6.07;2.20;;;21.60;80.50;;;;;;4997557;28;20065;-76
2023/07/15 00:45:26;;;;;;;4.78;2.38;;;21.60;80.90;;;;;;5002018;28;20492;-76
2023/07/15 00:48:17;;;;;;;5.35;2.38;;;21.50;81.40;;;;;;5013671;28;20053;-77
2023/07/15 00:51:03;;;;;;;3.28;2.15;;;21.50;81.30;;;;;;4983163;28;20056;-76
2023/07/15 00:53:49;;;;;;;7.10;2.65;;;21.60;81.60;;;;;;5003295;28;20489;-76
2023/07/15 00:56:36;;;;;;;10.77;2.45;;;21.60;81.60;;;;;;4985950;28;20044;-76
2023/07/15 00:59:21;;;;;;;6.82;2.83;;;21.50;81.60;;;;;;5006454;28;20180;-76
2023/07/15 01:02:11;;;;;;;5.75;2.53;;;21.50;81.70;;;;;;5002502;28;20374;-76
2023/07/15 01:04:57;;;;;;;9.95;2.65;;;21.40;81.70;;;;;;5000745;28;20042;-76
2023/07/15 01:07:43;;;;;;;4.32;2.10;;;21.40;81.80;;;;;;5009335;28;20041;-76
2023/07/15 01:10:29;;;;;;;6.95;2.17;;;21.40;81.80;;;;;;5010629;28;20393;-76
2023/07/15 01:13:15;;;;;;;6.75;2.40;;;21.40;81.70;;;;;;4982543;28;20049;-77
2023/07/15 01:16:00;;;;;;;4.68;2.53;;;21.40;81.90;;;;;;4996166;28;20783;-77
2023/07/15 01:18:46;;;;;;;7.47;2.50;;;21.30;82.10;;;;;;4991499;28;20042;-77
2023/07/15 01:21:34;;;;;;;17.75;7.20;;;21.30;82.30;;;;;;5002022;28;20069;-76
2023/07/15 01:24:25;;;;;;;10.70;4.00;;;21.30;82.30;;;;;;5014410;28;20135;-76
2023/07/15 01:27:12;;;;;;;10.25;4.50;;;21.20;82.30;;;;;;5012472;28;20052;-79
2023/07/15 01:29:58;;;;;;;6.38;3.30;;;21.10;82.70;;;;;;4996221;28;20494;-79
2023/07/15 01:32:44;;;;;;;8.55;3.60;;;21.00;82.80;;;;;;5023505;28;20117;-79
2023/07/15 01:35:30;;;;;;;6.97;3.50;;;21.00;83.00;;;;;;4996573;28;20458;-79
2023/07/15 01:38:16;;;;;;;8.75;2.60;;;21.00;83.10;;;;;;4989479;28;20045;-79
2023/07/15 01:41:02;;;;;;;7.00;3.05;;;20.90;83.20;;;;;;4979366;28;20042;-78
2023/07/15 01:43:48;;;;;;;6.28;2.40;;;20.90;83.30;;;;;;5013646;28;20120;-79
2023/07/15 01:46:36;;;;;;;4.50;2.25;;;20.80;83.50;;;;;;5015767;28;20116;-79
2023/07/15 01:49:22;;;;;;;6.43;3.05;;;20.80;83.60;;;;;;5014264;28;20048;-78
2023/07/15 01:52:09;;;;;;;8.07;2.63;;;20.60;83.60;;;;;;4990489;28;20095;-79
2023/07/15 01:54:55;;;;;;;4.93;2.60;;;20.60;83.80;;;;;;5004991;28;20044;-79
2023/07/15 01:57:41;;;;;;;7.38;2.42;;;20.70;83.70;;;;;;4993714;28;20100;-80
2023/07/15 02:00:29;;;;;;;9.25;3.03;;;20.70;83.80;;;;;;5008580;28;20063;-80
2023/07/15 02:03:15;;;;;;;;;;;20.60;83.80;;;;;;5000176;28;20868;-80
2023/07/15 02:06:01;;;;;;;6.45;2.60;;;20.60;84.00;;;;;;4993181;28;19996;-79
2023/07/15 02:08:47;;;;;;;7.82;2.33;;;20.50;83.80;;;;;;4991919;28;20125;-79
2023/07/15 02:11:36;;;;;;;6.13;2.50;;;20.50;84.20;;;;;;5017062;28;20052;-79
2023/07/15 02:14:22;;;;;;;5.53;2.33;;;20.50;84.00;;;;;;4998000;28;20070;-80
2023/07/15 02:17:08;;;;;;;6.30;2.53;;;20.50;84.10;;;;;;4974555;28;20030;-79
2023/07/15 02:19:57;;;;;;;9.27;2.72;;;20.40;84.00;;;;;;5004155;28;20362;-79
2023/07/15 02:22:43;;;;;;;7.68;2.60;;;20.40;83.90;;;;;;5011349;28;20128;-78
2023/07/15 02:25:29;;;;;;;6.25;2.75;;;20.50;83.50;;;;;;4983871;28;20038;-79
2023/07/15 02:28:15;;;;;;;4.82;2.50;;;20.50;83.40;;;;;;5006498;28;20052;-78
2023/07/15 02:31:01;;;;;;;4.85;2.53;;;20.50;83.40;;;;;;4990171;28;20393;-79
2023/07/15 02:33:48;;;;;;;6.18;2.67;;;20.50;83.60;;;;;;4988567;28;20046;-80
2023/07/15 02:36:35;;;;;;;6.70;2.67;;;20.50;83.50;;;;;;4993764;28;20037;-81
2023/07/15 02:39:21;;;;;;;8.23;2.30;;;20.40;83.50;;;;;;4987185;28;20542;-81
2023/07/15 02:42:07;;;;;;;6.57;2.60;;;20.40;83.60;;;;;;5008018;28;20045;-78
2023/07/15 02:44:53;;;;;;;5.43;2.75;;;20.40;83.70;;;;;;5017875;28;20053;-78
2023/07/15 02:47:39;;;;;;;7.13;2.47;;;20.50;83.80;;;;;;5004806;28;20646;-78
2023/07/15 02:50:26;;;;;;;6.75;2.15;;;20.40;84.00;;;;;;5008521;28;20045;-80
2023/07/15 02:53:12;;;;;;;7.05;2.65;;;20.40;84.20;;;;;;5016701;28;20120;-78
2023/07/15 02:56:00;;;;;;;7.05;2.33;;;20.40;84.10;;;;;;4990388;28;20065;-78
2023/07/15 02:58:46;;;;;;;7.13;2.65;;;20.30;84.40;;;;;;4992049;28;20041;-80
2023/07/15 03:01:32;;;;;;;8.60;2.38;;;20.30;84.50;;;;;;5014733;28;20132;-77
2023/07/15 03:04:18;;;;;;;7.05;2.40;;;20.30;84.30;;;;;;5015080;28;20697;-76
2023/07/15 03:07:07;;;;;;;4.93;2.25;;;20.30;84.00;;;;;;5013349;28;20047;-76
2023/07/15 03:09:54;;;;;;;5.78;2.50;;;20.30;84.00;;;;;;5005323;28;20067;-76
2023/07/15 03:12:42;;;;;;;4.93;2.22;;;20.30;84.10;;;;;;4984933;28;20562;-76
2023/07/15 03:15:30;;;;;;;7.78;2.60;;;20.30;84.40;;;;;;4987758;28;20037;-76
2023/07/15 03:18:16;;;;;;;5.65;2.80;;;20.30;84.50;;;;;;5007468;28;20346;-76
2023/07/15 03:21:02;;;;;;;4.97;2.05;;;20.30;84.50;;;;;;5007356;28;20099;-77
2023/07/15 03:23:47;;;;;;;5.53;2.38;;;20.30;84.70;;;;;;5008806;28;20038;-75
2023/07/15 03:26:33;;;;;;;4.50;2.65;;;20.20;84.70;;;;;;4999814;28;20044;-76
2023/07/15 03:29:20;;;;;;;7.22;2.80;;;20.30;84.80;;;;;;5010595;28;20033;-75
2023/07/15 03:32:06;;;;;;;5.60;2.72;;;20.20;85.00;;;;;;4991307;28;20045;-76
2023/07/15 03:34:52;;;;;;;4.13;2.35;;;20.20;85.10;;;;;;5013184;28;20044;-76
2023/07/15 03:37:40;;;;;;;4.20;2.35;;;20.10;85.40;;;;;;4997480;28;20465;-76
2023/07/15 03:40:26;;;;;;;6.50;2.83;;;20.10;85.50;;;;;;4981959;28;20389;-76
2023/07/15 03:43:12;;;;;;;4.55;2.47;;;20.10;85.40;;;;;;5004402;28;20044;-76
2023/07/15 03:45:58;;;;;;;9.60;2.85;;;20.10;85.40;;;;;;5002098;28;20041;-76
2023/07/15 03:48:44;;;;;;;7.22;2.47;;;20.10;85.60;;;;;;5010971;28;20184;-76
2023/07/15 03:51:30;;;;;;;6.80;2.63;;;20.00;86.00;;;;;;5011593;28;20128;-76
2023/07/15 03:54:16;;;;;;;8.70;2.70;;;20.10;86.00;;;;;;5010683;28;20095;-76
2023/07/15 03:57:02;;;;;;;6.15;2.63;;;20.00;86.00;;;;;;5009302;28;20087;-75
2023/07/15 03:59:48;;;;;;;7.30;2.55;;;20.10;86.10;;;;;;5018190;28;20048;-76
2023/07/15 04:02:34;;;;;;;10.20;2.53;;;20.00;86.20;;;;;;5005076;28;20060;-75
2023/07/15 04:05:20;;;;;;;4.57;2.20;;;20.00;86.60;;;;;;5011014;28;20069;-75
2023/07/15 04:08:06;;;;;;;8.45;2.25;;;20.00;86.90;;;;;;5011767;28;20060;-76
2023/07/15 04:10:52;;;;;;;7.53;3.30;;;19.90;87.20;;;;;;5001070;28;20054;-75
2023/07/15 04:13:38;;;;;;;3.95;2.10;;;19.90;87.40;;;;;;4992296;28;20042;-76
2023/07/15 04:16:24;;;;;;;9.25;2.40;;;19.90;87.80;;;;;;4993965;28;20856;-76
2023/07/15 04:19:10;;;;;;;6.18;2.70;;;19.80;88.10;;;;;;4995461;28;20390;-76
2023/07/15 04:21:56;;;;;;;5.03;2.42;;;19.80;88.50;;;;;;4979082;28;20120;-75
2023/07/15 04:24:42;;;;;;;13.60;2.75;;;19.80;89.40;;;;;;4998139;28;20140;-76
2023/07/15 04:27:28;;;;;;;6.43;2.53;;;19.80;89.10;;;;;;5012974;28;20139;-76
2023/07/15 04:30:13;;;;;;;5.22;2.40;;;19.70;89.70;;;;;;4999026;28;20057;-76
2023/07/15 04:32:59;;;;;;;7.05;2.78;;;19.70;89.80;;;;;;5005321;28;20382;-76
2023/07/15 04:35:46;;;;;;;6.10;2.85;;;19.70;90.00;;;;;;5001609;28;20382;-74
2023/07/15 04:38:32;;;;;;;5.13;2.50;;;19.60;90.20;;;;;;4999941;28;20427;-75
2023/07/15 04:41:18;;;;;;;7.13;2.53;;;19.60;90.30;;;;;;4984397;28;20045;-75
2023/07/15 04:44:04;;;;;;;5.32;3.00;;;19.60;90.50;;;;;;5005905;28;20786;-75
2023/07/15 04:46:50;;;;;;;5.07;2.50;;;19.60;90.70;;;;;;4992265;28;20052;-77
2023/07/15 04:49:37;;;;;;;6.97;3.15;;;19.60;90.80;;;;;;5009396;28;20037;-76
2023/07/15 04:52:23;;;;;;;6.43;2.55;;;19.60;90.90;;;;;;5003350;28;20041;-75
2023/07/15 04:55:10;;;;;;;5.50;2.70;;;19.60;91.00;;;;;;4967184;28;20486;-76
2023/07/15 04:57:59;;;;;;;7.40;2.72;;;19.60;91.00;;;;;;5004813;28;20041;-75
2023/07/15 05:00:50;;;;;;;8.32;2.65;;;19.60;91.00;;;;;;4983553;28;20038;-79
2023/07/15 05:03:36;;;;;;;6.85;2.50;;;19.60;91.20;;;;;;5007260;28;20084;-78
2023/07/15 05:06:22;;;;;;;5.32;2.50;;;19.60;91.10;;;;;;5007165;28;20156;-79
2023/07/15 05:09:09;;;;;;;3.70;2.08;;;19.70;91.30;;;;;;4998202;28;20057;-79
2023/07/15 05:11:57;;;;;;;6.20;2.72;;;19.80;91.30;;;;;;5003415;28;20079;-79
2023/07/15 05:14:43;;;;;;;6.47;3.07;;;19.80;91.40;;;;;;4992895;28;20045;-79
2023/07/15 05:17:29;;;;;;;8.65;2.33;;;19.90;91.40;;;;;;5002989;28;20267;-79
2023/07/15 05:20:15;;;;;;;5.10;2.63;;;20.00;91.50;;;;;;5007414;28;20083;-79
2023/07/15 05:23:04;;;;;;;4.38;2.35;;;20.10;91.50;;;;;;5012845;28;20041;-79
2023/07/15 05:25:51;;;;;;;5.90;2.53;;;20.10;91.40;;;;;;4997490;28;20041;-79
2023/07/15 05:28:38;;;;;;;5.32;2.88;;;20.20;91.50;;;;;;4996136;28;20502;-79
2023/07/15 05:31:24;;;;;;;5.35;2.70;;;20.20;91.40;;;;;;5001325;28;20060;-79
2023/07/15 05:34:10;;;;;;;4.35;2.33;;;20.30;91.50;;;;;;5008596;28;20042;-79
2023/07/15 05:36:56;;;;;;;7.20;2.50;;;20.30;91.50;;;;;;5007976;28;20044;-79
2023/07/15 05:39:44;;;;;;;4.93;2.50;;;20.40;91.60;;;;;;5003367;28;20045;-79
2023/07/15 05:42:30;;;;;;;5.72;2.38;;;20.40;91.60;;;;;;4984690;28;20041;-79
2023/07/15 05:45:16;;;;;;;7.15;2.83;;;20.40;91.50;;;;;;5008476;28;20045;-81
2023/07/15 05:48:02;;;;;;;6.85;2.90;;;20.50;91.60;;;;;;4990716;28;20077;-78
2023/07/15 05:50:48;;;;;;;5.00;2.35;;;20.60;91.60;;;;;;4989899;28;20049;-78
2023/07/15 05:53:34;;;;;;;5.43;2.65;;;20.60;91.60;;;;;;5008622;28;20132;-78
2023/07/15 05:56:20;;;;;;;4.88;2.72;;;20.70;91.50;;;;;;5007677;28;20125;-79
2023/07/15 05:59:06;;;;;;;4.78;2.30;;;20.80;91.60;;;;;;5006851;28;20116;-79
2023/07/15 06:01:52;;;;;;;4.65;2.40;;;20.90;91.70;;;;;;4989793;28;20054;-78
2023/07/15 06:04:38;;;;;;;4.00;2.38;;;21.00;91.70;;;;;;4998268;28;20087;-78
2023/07/15 06:07:24;;;;;;;6.15;2.28;;;21.00;91.70;;;;;;5009077;28;20107;-79
2023/07/15 06:10:10;;;;;;;8.15;2.75;;;21.10;91.70;;;;;;5017737;28;20053;-79
2023/07/15 06:12:56;;;;;;;5.55;2.58;;;21.20;91.60;;;;;;5002191;28;20052;-79
2023/07/15 06:15:43;;;;;;;6.15;2.55;;;21.30;91.60;;;;;;5000190;28;20029;-78
2023/07/15 06:18:29;;;;;;;5.22;2.50;;;21.30;91.70;;;;;;4988642;28;20219;-79
2023/07/15 06:21:15;;;;;;;6.25;2.30;;;21.30;91.80;;;;;;4995089;28;20103;-78
2023/07/15 06:24:01;;;;;;;4.32;2.47;;;21.40;91.90;;;;;;4992518;28;20110;-79
2023/07/15 06:26:47;;;;;;;6.82;2.60;;;21.50;92.10;;;;;;4992093;28;20034;-79
2023/07/15 06:29:34;;;;;;;5.57;2.60;;;21.50;92.00;;;;;;5009934;28;20362;-79
2023/07/15 06:32:20;;;;;;;5.05;2.22;;;21.60;92.00;;;;;;5002194;28;20132;-75
2023/07/15 06:35:06;;;;;;;5.45;2.58;;;21.70;91.90;;;;;;5002434;28;20712;-75
2023/07/15 06:37:52;;;;;;;7.28;2.47;;;21.80;91.90;;;;;;4989956;28;20073;-76
2023/07/15 06:40:39;;;;;;;4.13;2.10;;;21.90;91.80;;;;;;5024270;28;20038;-76
2023/07/15 06:43:25;;;;;;;5.72;2.50;;;22.00;91.80;;;;;;5001451;28;20045;-76
2023/07/15 06:46:11;;;;;;;7.05;2.35;;;22.10;91.80;;;;;;5012046;28;20497;-76
2023/07/15 06:48:57;;;;;;;5.65;2.10;;;22.10;91.90;;;;;;4998476;28;20053;-75
2023/07/15 06:51:43;;;;;;;5.22;2.42;;;22.20;92.00;;;;;;5007017;28;20053;-75
2023/07/15 06:54:29;;;;;;;6.95;2.25;;;22.30;92.10;;;;;;4990068;28;20042;-75
2023/07/15 06:57:15;;;;;;;5.45;2.20;;;22.40;92.20;;;;;;5000366;28;20119;-75
2023/07/15 07:00:01;;;;;;;7.03;2.60;;;22.40;92.30;;;;;;4994787;28;20375;-76
2023/07/15 07:02:47;;;;;;;5.32;2.55;;;22.50;92.20;;;;;;4977030;28;20058;-76
2023/07/15 07:05:33;;;;;;;4.40;2.08;;;22.60;92.50;;;;;;4988150;28;20077;-76
2023/07/15 07:08:22;;;;;;;6.50;2.28;;;22.70;92.40;;;;;;4997032;28;20049;-75
2023/07/15 07:11:09;;;;;;;6.25;2.50;;;22.80;92.20;;;;;;4987202;28;20046;-76
2023/07/15 07:13:55;;;;;;;5.03;2.43;;;23.00;92.00;;;;;;4989768;28;20034;-76
2023/07/15 07:16:41;;;;;;;9.27;2.42;;;23.00;91.80;;;;;;4985368;28;20312;-76
2023/07/15 07:19:27;;;;;;;5.28;2.35;;;23.10;92.10;;;;;;4973960;28;20109;-75
2023/07/15 07:22:13;;;;;;;6.70;2.35;;;23.20;92.10;;;;;;4984427;28;20047;-76
2023/07/15 07:25:00;;;;;;;4.88;2.20;;;23.30;92.10;;;;;;4984223;28;20129;-76
2023/07/15 07:27:46;;;;;;;6.78;2.22;;;23.40;92.20;;;;;;4995633;28;20042;-75
2023/07/15 07:30:32;;;;;;;3.30;2.05;;;23.50;92.10;;;;;;4977142;28;20042;-74
2023/07/15 07:33:20;;;;;;;5.10;2.35;;;23.60;92.30;;;;;;5000597;28;20061;-75
2023/07/15 07:36:06;;;;;;;3.58;1.80;;;23.70;92.00;;;;;;4992415;28;20343;-75
2023/07/15 07:38:52;;;;;;;5.13;2.08;;;23.90;92.70;;;;;;4991428;28;20088;-74
2023/07/15 07:41:38;;;;;;;5.22;2.25;;;24.00;92.30;;;;;;4964031;28;20046;-75
2023/07/15 07:44:24;;;;;;;4.05;2.15;;;24.00;92.10;;;;;;4987360;28;20054;-75
2023/07/15 07:47:10;;;;;;;5.75;2.08;;;24.30;90.90;;;;;;4990125;28;20041;-75
2023/07/15 07:49:56;;;;;;;5.60;2.13;;;24.80;89.20;;;;;;4987487;28;20046;-74
2023/07/15 07:52:42;;;;;;;3.35;1.77;;;24.70;89.20;;;;;;4996324;28;20210;-75
2023/07/15 07:55:28;;;;;;;5.50;1.83;;;25.00;87.80;;;;;;4983174;28;20038;-75
2023/07/15 07:58:13;;;;;;;7.60;1.65;;;24.90;87.00;;;;;;5005560;28;20034;-73
2023/07/15 08:01:00;;;;;;;4.55;1.95;;;24.90;87.30;;;;;;4994217;28;20793;-73
2023/07/15 08:03:47;;;;;;;3.30;1.58;;;24.90;87.30;;;;;;4990556;28;20038;-73
2023/07/15 08:06:33;;;;;;;11.93;2.40;;;25.20;86.50;;;;;;5002765;28;20512;-73
2023/07/15 08:09:19;;;;;;;6.18;1.60;;;25.20;87.30;;;;;;4995469;28;20343;-73
2023/07/15 08:12:06;;;;;;;6.25;1.90;;;25.50;85.50;;;;;;4994021;28;20358;-73
2023/07/15 08:14:55;;;;;;;3.80;1.60;;;25.70;83.80;;;;;;5004087;28;20088;-73
2023/07/15 08:17:41;;;;;;;3.60;1.80;;;25.80;83.20;;;;;;5003477;28;20541;-76
2023/07/15 08:20:27;;;;;;;5.63;1.80;;;26.00;83.60;;;;;;5000011;28;20052;-75
2023/07/15 08:23:13;;;;;;;3.17;1.90;;;25.90;82.70;;;;;;5002446;28;20034;-76
2023/07/15 08:25:59;;;;;;;6.75;1.70;;;26.00;82.20;;;;;;5005233;28;20050;-75
2023/07/15 08:28:45;;;;;;;6.00;1.50;;;26.00;81.60;;;;;;4992761;28;20052;-75
2023/07/15 08:31:31;;;;;;;5.28;1.60;;;26.30;82.00;;;;;;5008035;28;20806;-73
2023/07/15 08:34:17;;;;;;;2.72;1.70;;;26.50;79.50;;;;;;5001070;28;20038;-73
2023/07/15 08:37:03;;;;;;;4.75;1.50;;;26.90;78.20;;;;;;5007055;28;20049;-73
2023/07/15 08:39:49;;;;;;;2.90;1.50;;;27.10;78.30;;;;;;4984545;28;20231;-73
2023/07/15 08:42:35;;;;;;;3.58;1.50;;;27.20;76.80;;;;;;4996148;28;20046;-73
2023/07/15 08:45:21;;;;;;;3.85;1.65;;;27.10;77.80;;;;;;4999445;28;20056;-75
2023/07/15 08:48:08;;;;;;;5.50;1.73;;;27.00;77.80;;;;;;4999938;28;20132;-76
2023/07/15 08:50:56;;;;;;;3.47;2.20;;;26.90;78.00;;;;;;5007791;28;20046;-76
2023/07/15 08:53:42;;;;;;;4.22;1.70;;;27.20;77.90;;;;;;4993590;28;20065;-75
2023/07/15 08:56:29;;;;;;;3.50;1.67;;;27.10;79.20;;;;;;5002535;28;20042;-74
2023/07/15 08:59:18;;;;;;;4.60;1.70;;;27.00;79.10;;;;;;4984992;28;20045;-74
2023/07/15 09:02:04;;;;;;;6.30;1.70;;;27.10;80.20;;;;;;4979660;28;20624;-74
2023/07/15 09:04:50;;;;;;;4.00;1.60;;;27.10;79.00;;;;;;4983627;28;20077;-76
2023/07/15 09:07:57;;;;;;;4.90;2.50;;;27.30;77.20;;;;;;4977146;28;20046;-75
2023/07/15 09:10:53;;;;;;;7.65;3.22;;;27.20;76.90;;;;;;4990329;28;20046;-75
2023/07/15 09:13:40;;;;;;;4.35;1.98;;;27.20;78.50;;;;;;4985956;28;20561;-76
2023/07/15 09:16:27;;;;;;;4.78;1.60;;;27.20;78.60;;;;;;4996563;28;20662;-76
2023/07/15 09:19:13;;;;;;;2.97;1.63;;;27.60;75.90;;;;;;4974634;28;20041;-76
2023/07/15 09:22:07;;;;;;;3.22;1.60;;;27.70;76.00;;;;;;4997011;28;20132;-76
2023/07/15 09:24:53;;;;;;;2.65;1.40;;;27.60;75.30;;;;;;4990468;28;20367;-77
2023/07/15 09:27:42;;;;;;;2.17;1.40;;;27.60;77.10;;;;;;4995052;28;20108;-76
2023/07/15 09:30:28;;;;;;;2.70;1.27;;;27.90;74.40;;;;;;4998691;28;20123;-76
2023/07/15 09:33:30;;;;;;;4.45;1.60;;;28.40;74.00;;;;;;4983377;28;20735;-77
2023/07/15 09:36:30;;;;;;;2.30;1.33;;;28.40;74.70;;;;;;4998665;28;20035;-76
2023/07/15 09:39:19;;;;;;;1.63;1.27;;;28.70;72.30;;;;;;4976016;28;20471;-77
2023/07/15 09:42:07;;;;;;;2.63;1.52;;;28.40;72.20;;;;;;4978380;28;20129;-77
2023/07/15 09:44:53;;;;;;;7.47;1.40;;;28.70;71.50;;;;;;4997037;28;20038;-77
2023/07/15 09:47:39;;;;;;;2.38;1.50;;;29.20;69.30;;;;;;5001413;28;20046;-76
2023/07/15 09:50:25;;;;;;;2.80;1.35;;;29.00;70.40;;;;;;4994477;28;20125;-77
2023/07/15 09:53:11;;;;;;;3.55;1.38;;;28.90;70.80;;;;;;4983892;28;20046;-76
2023/07/15 09:55:57;;;;;;;3.03;1.38;;;29.10;71.20;;;;;;4999143;28;20038;-76
2023/07/15 09:58:46;;;;;;;3.47;1.20;;;29.20;70.80;;;;;;4997344;28;20471;-75
2023/07/15 10:01:37;;;;;;;2.30;1.40;;;28.90;70.40;;;;;;4995915;28;20128;-75
2023/07/15 10:04:41;;;;;;;3.58;1.33;;;29.00;71.00;;;;;;5006534;28;20069;-75
2023/07/15 10:07:28;;;;;;;4.55;1.38;;;28.90;70.70;;;;;;5014430;28;20053;-75
2023/07/15 10:10:14;;;;;;;3.03;1.20;;;28.90;70.00;;;;;;4996239;28;20506;-75
2023/07/15 10:13:00;;;;;;;2.15;1.20;;;29.00;71.10;;;;;;5001026;28;20068;-75
2023/07/15 10:15:45;;;;;;;3.65;1.67;;;29.00;70.90;;;;;;4983692;28;20030;-75
2023/07/15 10:18:31;;;;;;;2.50;1.40;;;29.00;69.90;;;;;;4985506;28;20049;-74
2023/07/15 10:21:17;;;;;;;2.67;1.20;;;28.90;71.00;;;;;;5000067;28;20080;-74
2023/07/15 10:24:11;;;;;;;3.72;1.50;;;29.10;70.10;;;;;;5003153;28;20651;-74
2023/07/15 10:26:57;;;;;;;3.88;1.30;;;29.30;69.80;;;;;;5014630;28;20088;-75
2023/07/15 10:29:43;;;;;;;3.30;1.40;;;29.20;69.70;;;;;;4987655;28;20042;-74
2023/07/15 10:32:29;;;;;;;4.75;1.67;;;29.20;70.20;;;;;;4998990;28;20405;-74
2023/07/15 10:35:15;;;;;;;1.98;1.33;;;29.10;70.50;;;;;;4997840;28;20103;-74
2023/07/15 10:38:02;;;;;;;5.20;1.67;;;29.10;70.90;;;;;;5005798;28;20033;-74
2023/07/15 10:40:52;;;;;;;7.23;1.90;;;29.00;71.30;;;;;;5001781;28;20038;-75
2023/07/15 10:43:39;;;;;;;4.22;1.90;;;28.90;71.20;;;;;;4996981;28;20080;-74
2023/07/15 10:46:25;;;;;;;6.63;2.22;;;28.80;71.90;;;;;;5003273;28;20545;-74
2023/07/15 10:49:11;;;;;;;6.03;1.95;;;28.70;71.80;;;;;;5000920;28;20045;-74
2023/07/15 10:51:57;;;;;;;4.97;2.30;;;28.60;72.20;;;;;;5009927;28;20041;-74
2023/07/15 10:54:43;;;;;;;4.45;2.20;;;28.50;72.90;;;;;;5009378;28;20038;-74
2023/07/15 10:57:29;;;;;;;9.65;2.65;;;28.50;73.70;;;;;;4975233;28;20517;-74
2023/07/15 11:00:15;;;;;;;9.70;2.40;;;28.50;74.30;;;;;;4993147;28;20091;-76
2023/07/15 11:03:01;;;;;;;8.77;2.25;;;28.40;75.30;;;;;;5011163;28;20428;-75
2023/07/15 11:05:47;;;;;;;5.85;2.03;;;28.30;75.70;;;;;;4996299;28;20382;-76
2023/07/15 11:08:33;;;;;;;5.18;2.33;;;28.00;76.40;;;;;;4983168;28;20038;-76
2023/07/15 11:11:19;;;;;;;5.60;2.17;;;27.90;77.70;;;;;;4999957;28;20707;-75
2023/07/15 11:14:05;;;;;;;6.60;2.10;;;27.80;78.00;;;;;;5009364;28;20668;-78
2023/07/15 11:16:55;;;;;;;10.13;2.20;;;27.60;80.50;;;;;;4989035;28;20034;-78
2023/07/15 11:19:41;;;;;;;8.35;2.50;;;27.20;82.40;;;;;;5006505;28;20091;-77
2023/07/15 11:22:27;;;;;;;5.75;2.30;;;27.10;83.80;;;;;;5003951;28;20037;-77
2023/07/15 11:25:14;;;;;;;7.07;2.10;;;26.90;84.50;;;;;;5005661;28;20445;-78
2023/07/15 11:28:00;;;;;;;5.43;2.10;;;26.60;86.90;;;;;;4997568;28;20100;-78
2023/07/15 11:30:46;;;;;;;4.90;1.90;;;26.50;87.50;;;;;;5006350;28;20537;-78
2023/07/15 11:33:33;;;;;;;3.45;2.10;;;26.30;90.20;;;;;;4996772;28;20084;-78
2023/07/15 11:36:19;;;;;;;3.58;1.85;;;26.10;90.40;;;;;;4986991;28;20121;-78
2023/07/15 11:39:06;;;;;;;10.00;2.30;;;26.00;91.50;;;;;;4983268;28;20045;-78
2023/07/15 11:41:52;;;;;;;5.25;2.15;;;26.10;91.90;;;;;;5013096;28;20096;-79
2023/07/15 11:44:39;;;;;;;4.03;2.30;;;25.70;92.20;;;;;;5008656;28;20886;-78
2023/07/15 11:47:28;;;;;;;4.88;2.63;;;25.60;92.50;;;;;;4989396;28;20076;-78
2023/07/15 11:50:14;;;;;;;4.53;2.17;;;25.60;93.10;;;;;;4996183;28;20120;-79
2023/07/15 11:53:00;;;;;;;6.70;2.42;;;25.50;93.30;;;;;;5007901;28;20072;-79
2023/07/15 11:55:46;;;;;;;4.35;1.90;;;25.60;93.30;;;;;;4983978;28;20048;-78
2023/07/15 11:58:40;;;;;;;5.30;2.53;;;25.50;93.40;;;;;;5010210;28;20097;-79
2023/07/15 12:01:26;;;;;;;3.55;1.95;;;25.40;93.80;;;;;;5001840;28;20057;-78
2023/07/15 12:04:16;;;;;;;4.38;2.03;;;25.20;93.90;;;;;;5012588;28;20047;-78
2023/07/15 12:07:03;;;;;;;7.65;2.20;;;25.00;94.70;;;;;;4999917;28;20048;-78
2023/07/15 12:10:05;;;;;;;4.20;2.00;;;25.00;94.60;;;;;;5010494;28;20527;-78
2023/07/15 12:12:51;;;;;;;3.10;2.20;;;24.90;94.80;;;;;;4999624;28;20078;-77
2023/07/15 12:15:38;;;;;;;3.55;2.20;;;24.80;94.80;;;;;;5005057;28;20068;-79
2023/07/15 12:18:24;;;;;;;5.00;2.15;;;24.80;94.80;;;;;;5006109;28;20040;-79
2023/07/15 12:21:10;;;;;;;5.38;2.25;;;24.70;94.60;;;;;;4996035;28;20042;-79
2023/07/15 12:23:56;;;;;;;3.70;2.42;;;24.70;94.90;;;;;;4993900;28;20038;-78
2023/07/15 12:26:42;;;;;;;5.57;2.47;;;24.70;95.10;;;;;;4988466;28;20042;-78
2023/07/15 12:29:28;;;;;;;3.65;2.63;;;24.60;95.50;;;;;;4988601;28;20077;-78
2023/07/15 12:32:15;;;;;;;6.35;2.10;;;24.60;95.60;;;;;;5008816;28;20045;-78
2023/07/15 12:35:01;;;;;;;5.63;2.35;;;24.70;95.80;;;;;;5008042;28;20367;-78
2023/07/15 12:37:47;;;;;;;2.97;2.10;;;24.70;96.20;;;;;;5009450;28;20124;-78
2023/07/15 12:40:33;;;;;;;3.72;2.00;;;24.70;96.00;;;;;;4999820;28;20073;-78
2023/07/15 12:43:20;;;;;;;4.60;2.40;;;24.70;95.90;;;;;;5004557;28;20798;-78
2023/07/15 12:46:06;;;;;;;4.30;2.10;;;24.70;95.90;;;;;;4995681;28;20038;-78
2023/07/15 12:48:53;;;;;;;4.43;1.75;;;24.70;95.90;;;;;;5015527;28;20047;-78
2023/07/15 12:51:39;;;;;;;5.10;2.00;;;24.60;95.90;;;;;;4992850;28;20041;-78
2023/07/15 12:54:25;;;;;;;4.45;2.13;;;24.60;96.30;;;;;;5000600;28;20034;-78
2023/07/15 12:57:12;;;;;;;5.07;2.40;;;24.70;96.90;;;;;;5016640;28;20123;-78
2023/07/15 12:59:58;;;;;;;5.15;2.42;;;24.80;96.40;;;;;;5014889;28;20034;-79
2023/07/15 13:02:46;;;;;;;5.78;3.22;;;24.80;96.40;;;;;;5006814;28;20091;-78
2023/07/15 13:05:32;;;;;;;5.90;2.20;;;24.90;96.40;;;;;;5004278;28;20497;-78
2023/07/15 13:08:18;;;;;;;4.65;1.95;;;24.80;96.00;;;;;;5008823;28;20042;-78
2023/07/15 13:11:05;;;;;;;3.42;2.03;;;24.90;95.50;;;;;;4997200;28;20049;-78
2023/07/15 13:13:51;;;;;;;4.72;2.20;;;24.90;96.90;;;;;;5020998;28;20084;-78
2023/07/15 13:16:37;;;;;;;4.30;2.05;;;24.90;96.50;;;;;;5005570;28;20045;-78
2023/07/15 13:19:23;;;;;;;4.68;2.08;;;24.90;96.80;;;;;;5006867;28;20041;-78
2023/07/15 13:22:08;;;;;;;8.93;2.45;;;25.00;96.50;;;;;;5020692;28;20044;-78
2023/07/15 13:24:54;;;;;;;4.35;2.25;;;24.90;97.10;;;;;;5016638;28;20760;-78
2023/07/15 13:27:40;;;;;;;3.65;2.10;;;24.80;97.30;;;;;;4999622;28;20100;-78
2023/07/15 13:30:27;;;;;;;3.55;2.13;;;24.80;97.80;;;;;;4982092;28;20117;-78
2023/07/15 13:33:13;;;;;;;2.40;1.70;;;24.80;97.20;;;;;;5004176;28;20394;-78
2023/07/15 13:35:59;;;;;;;4.07;2.00;;;24.80;97.80;;;;;;5009412;28;20033;-79
2023/07/15 13:38:46;;;;;;;2.72;1.75;;;24.70;98.00;;;;;;5003531;28;20042;-79
2023/07/15 13:41:32;;;;;;;4.15;1.75;;;24.70;98.30;;;;;;4990249;28;20462;-76
2023/07/15 13:44:18;;;;;;;2.72;1.70;;;24.70;97.40;;;;;;4997028;28;20563;-77
2023/07/15 13:47:05;;;;;;;2.22;1.70;;;24.70;98.00;;;;;;5003382;28;20095;-79
2023/07/15 13:49:50;;;;;;;2.90;1.80;;;24.70;97.00;;;;;;5008689;28;20165;-79
2023/07/15 13:52:36;;;;;;;3.30;1.50;;;24.80;97.40;;;;;;5007068;28;20045;-78
2023/07/15 13:55:22;;;;;;;3.20;2.10;;;24.70;97.70;;;;;;5016893;28;20132;-78
2023/07/15 13:58:08;;;;;;;3.78;1.70;;;24.80;97.50;;;;;;5000878;28;20662;-78
2023/07/15 14:00:54;;;;;;;3.80;1.67;;;24.90;96.80;;;;;;4998828;28;20038;-78
2023/07/15 14:03:40;;;;;;;2.10;1.52;;;24.90;96.40;;;;;;4990771;28;20119;-78
2023/07/15 14:06:26;;;;;;;2.88;1.70;;;24.90;96.50;;;;;;4997355;28;20841;-79
2023/07/15 14:09:13;;;;;;;4.55;1.70;;;25.00;96.10;;;;;;4987364;28;20046;-78
2023/07/15 14:11:59;;;;;;;3.05;1.77;;;24.90;96.60;;;;;;5008664;28;20099;-78
2023/07/15 14:14:45;;;;;;;2.13;1.35;;;25.00;96.50;;;;;;5007474;28;20038;-78
2023/07/15 14:17:31;;;;;;;3.15;1.63;;;25.10;95.90;;;;;;4982000;28;20068;-78
2023/07/15 14:20:17;;;;;;;2.53;1.60;;;25.20;96.10;;;;;;4983473;28;20426;-78
2023/07/15 14:23:03;;;;;;;2.83;1.70;;;25.20;96.30;;;;;;4990009;28;20053;-78
2023/07/15 14:25:49;;;;;;;3.22;1.75;;;25.20;96.90;;;;;;5006531;28;20128;-78
2023/07/15 14:28:35;;;;;;;2.65;1.95;;;25.50;97.40;;;;;;4990582;28;20061;-78